Time;durP1;ratioP1;P1;durP2;ratioP2;P2;SDS_P1;SDS_P2;PMS_P1;PMS_P2;Temp;Humidity;BMP_temperature;BMP_pressure;BME280_temperature;BME280_humidity;BME280_pressure;Samples;Min_cycle;Max_cycle;Signal;HPM_P1;HPM_P2
2023/07/06 00:02:42;;;;;;;16.05;11.48;;;;;;;;;;4997246;28;20483;-88
2023/07/06 00:05:29;;;;;;;14.25;10.30;;;;;;;;;;4982328;28;20042;-87
2023/07/06 00:08:18;;;;;;;15.50;10.20;;;;;;;;;;5002712;28;20046;-88
2023/07/06 00:11:04;;;;;;;17.38;10.85;;;;;;;;;;4996800;28;20038;-88
2023/07/06 00:13:49;;;;;;;17.65;10.45;;;;;;;;;;4995660;28;20046;-88
2023/07/06 00:16:35;;;;;;;17.35;10.23;;;;;;;;;;4988689;28;20046;-89
2023/07/06 00:19:21;;;;;;;11.70;10.27;;;;;;;;;;4996487;28;20046;-88
2023/07/06 00:22:09;;;;;;;11.15;9.45;;;;;;;;;;4996805;28;20038;-84
2023/07/06 00:24:57;;;;;;;16.33;10.10;;;;;;;;;;4996737;28;20042;-84
2023/07/06 00:27:43;;;;;;;14.95;9.75;;;;;;;;;;4996476;28;20042;-84
2023/07/06 00:30:53;;;;;;;12.25;8.93;;;;;;;;;;4988807;28;20054;-91
2023/07/06 00:33:38;;;;;;;9.82;7.30;;;;;;;;;;4982431;28;20046;-89
2023/07/06 00:36:23;;;;;;;9.18;7.00;;;;;;;;;;4988236;28;20042;-88
2023/07/06 00:39:12;;;;;;;9.85;7.80;;;;;;;;;;4988708;28;20046;-89
2023/07/06 00:41:58;;;;;;;10.05;7.72;;;;;;;;;;5002060;28;20050;-89
2023/07/06 00:44:59;;;;;;;12.50;5.60;;;;;;;;;;4996750;28;20051;-88
2023/07/06 00:47:52;;;;;;;7.90;6.00;;;;;;;;;;4996734;28;20391;-88
2023/07/06 00:50:37;;;;;;;8.38;6.30;;;;;;;;;;4988488;28;20392;-89
2023/07/06 00:53:27;;;;;;;8.65;6.50;;;;;;;;;;4995937;28;20046;-88
2023/07/06 00:56:17;;;;;;;12.75;6.60;;;;;;;;;;4988620;28;20046;-88
2023/07/06 00:59:07;;;;;;;8.90;6.57;;;;;;;;;;4989194;28;20484;-87
2023/07/06 01:01:52;;;;;;;8.00;6.00;;;;;;;;;;5002747;28;20046;-88
2023/07/06 01:04:41;;;;;;;7.90;6.45;;;;;;;;;;4996857;28;20484;-88
2023/07/06 01:16:53;;;;;;;10.40;6.47;;;;;;;;;;4951920;28;20501;-88
2023/07/06 01:21:03;;;;;;;6.53;5.55;;;;;;;;;;4950963;28;20501;-89
2023/07/06 01:24:10;;;;;;;6.72;5.07;;;;;;;;;;4940886;29;20497;-89
2023/07/06 01:27:10;;;;;;;8.52;5.28;;;;;;;;;;4944200;28;20043;-88
2023/07/06 01:30:44;;;;;;;7.95;4.80;;;;;;;;;;4987423;28;20042;-89
2023/07/06 01:34:25;;;;;;;8.43;4.70;;;;;;;;;;4981656;28;20054;-90
2023/07/06 02:52:00;;;;;;;7.45;6.15;;;;;;;;;;5019222;22;20419;-87
2023/07/06 02:56:17;;;;;;;7.80;6.50;;;;;;;;;;4990055;28;20122;-88
2023/07/06 03:04:17;;;;;;;13.07;6.65;;;;;;;;;;4942027;29;20044;-89
2023/07/06 03:07:43;;;;;;;11.90;6.90;;;;;;;;;;4987038;28;20046;-89
2023/07/06 03:11:01;;;;;;;12.27;6.87;;;;;;;;;;4999946;28;20042;-88
2023/07/06 03:18:22;;;;;;;9.55;6.72;;;;;;;;;;4997111;28;20086;-89
2023/07/06 03:21:24;;;;;;;10.25;6.82;;;;;;;;;;4972606;28;20054;-87
2023/07/06 03:24:44;;;;;;;12.30;7.00;;;;;;;;;;4974368;28;20269;-88
2023/07/06 03:32:37;;;;;;;10.82;6.57;;;;;;;;;;4929842;28;20050;-89
2023/07/06 03:35:26;;;;;;;13.52;6.53;;;;;;;;;;4971541;28;20438;-88
2023/07/06 03:38:22;;;;;;;12.80;7.03;;;;;;;;;;4973490;28;20394;-89
2023/07/06 03:44:30;;;;;;;15.43;7.03;;;;;;;;;;4985144;28;20470;-87
2023/07/06 03:47:46;;;;;;;12.90;6.82;;;;;;;;;;4986639;28;20034;-87
2023/07/06 03:51:16;;;;;;;9.13;6.93;;;;;;;;;;4972510;28;20046;-87
2023/07/06 03:55:12;;;;;;;10.18;6.68;;;;;;;;;;4985027;28;20042;-86
2023/07/06 03:58:30;;;;;;;12.65;6.50;;;;;;;;;;4969558;28;20042;-86
2023/07/06 04:49:53;;;;;;;7.13;4.80;;;;;;;;;;4845917;29;20038;-88
2023/07/06 04:53:01;;;;;;;9.75;5.68;;;;;;;;;;4838646;29;21884;-87
2023/07/06 04:56:13;;;;;;;7.85;5.20;;;;;;;;;;4816746;29;20065;-88
2023/07/06 04:59:31;;;;;;;8.05;5.00;;;;;;;;;;4872304;29;20052;-88
2023/07/06 05:28:53;;;;;;;8.55;4.75;;;;;;;;;;4911778;29;20063;-88
2023/07/06 06:01:45;;;;;;;8.20;4.50;;;;;;;;;;4938260;29;20039;-85
2023/07/06 06:04:35;;;;;;;8.10;4.68;;;;;;;;;;4938629;28;20042;-87
2023/07/06 06:08:09;;;;;;;5.40;4.10;;;;;;;;;;4971982;28;20043;-87
2023/07/06 06:11:12;;;;;;;9.27;4.60;;;;;;;;;;4959045;28;20046;-85
2023/07/06 06:22:42;;;;;;;13.13;5.10;;;;;;;;;;4965187;28;20046;-88
2023/07/06 06:25:45;;;;;;;7.35;4.93;;;;;;;;;;4944864;28;20054;-87
2023/07/06 06:28:30;;;;;;;5.78;4.30;;;;;;;;;;4942119;28;20062;-85
2023/07/06 06:31:26;;;;;;;9.20;4.85;;;;;;;;;;4955053;28;20051;-87
2023/07/06 06:34:12;;;;;;;9.60;4.78;;;;;;;;;;4947844;28;20063;-84
2023/07/06 06:36:57;;;;;;;7.18;5.03;;;;;;;;;;4947777;28;20046;-87
2023/07/06 06:39:43;;;;;;;6.60;4.57;;;;;;;;;;4948214;28;20054;-85
2023/07/06 06:42:28;;;;;;;6.75;4.75;;;;;;;;;;4940846;28;20479;-85
2023/07/06 06:45:16;;;;;;;6.13;4.30;;;;;;;;;;4948318;28;20054;-86
2023/07/06 06:48:02;;;;;;;7.15;5.10;;;;;;;;;;4958430;28;20046;-85
2023/07/06 06:50:48;;;;;;;5.93;4.85;;;;;;;;;;4951609;28;20055;-86
2023/07/06 06:53:34;;;;;;;7.30;4.70;;;;;;;;;;4974114;28;20050;-86
2023/07/06 06:56:24;;;;;;;6.38;4.53;;;;;;;;;;4967190;28;20050;-86
2023/07/06 06:59:23;;;;;;;7.65;5.82;;;;;;;;;;4973748;28;20042;-87
2023/07/06 07:02:09;;;;;;;8.88;5.38;;;;;;;;;;4970604;28;20046;-87
2023/07/06 07:04:59;;;;;;;7.45;5.60;;;;;;;;;;4964437;28;20055;-85
2023/07/06 07:08:00;;;;;;;8.80;5.63;;;;;;;;;;4962115;28;20039;-84
2023/07/06 07:11:06;;;;;;;8.82;6.00;;;;;;;;;;4977311;28;20046;-86
2023/07/06 07:14:43;;;;;;;9.15;6.32;;;;;;;;;;4965315;28;20398;-85
2023/07/06 07:21:41;;;;;;;7.15;6.25;;;;;;;;;;4989543;28;20046;-84
2023/07/06 07:25:19;;;;;;;10.52;6.75;;;;;;;;;;4985936;28;20046;-86
2023/07/06 07:32:36;;;;;;;7.80;6.47;;;;;;;;;;5000757;28;20050;-87
2023/07/06 07:40:22;;;;;;;8.40;6.45;;;;;;;;;;4954885;28;20031;-85
2023/07/06 07:43:15;;;;;;;11.00;6.50;;;;;;;;;;4969839;28;20047;-85
2023/07/06 07:46:41;;;;;;;8.70;6.20;;;;;;;;;;4968789;28;20478;-86
2023/07/06 07:57:56;;;;;;;8.98;6.15;;;;;;;;;;4980508;28;20038;-86
2023/07/06 08:14:32;;;;;;;9.05;6.15;;;;;;;;;;4996963;28;20042;-85
2023/07/06 08:21:42;;;;;;;11.43;6.65;;;;;;;;;;5002429;28;20038;-86
2023/07/06 08:25:21;;;;;;;12.02;6.60;;;;;;;;;;4996044;28;20042;-86
2023/07/06 08:28:36;;;;;;;;;;;;;;;;;;4933908;29;20055;-87
2023/07/06 08:36:28;;;;;;;9.80;6.82;;;;;;;;;;4917336;29;20071;-87
2023/07/06 09:05:50;;;;;;;;;;;;;;;;;;;;;
2023/07/06 09:30:59;;;;;;;11.05;7.90;;;;;;;;;;4824835;29;20042;-85
2023/07/06 09:38:57;;;;;;;9.90;8.50;;;;;;;;;;4824021;29;20050;-86
2023/07/06 09:43:12;;;;;;;12.23;9.02;;;;;;;;;;4927331;29;20043;-85
2023/07/06 09:46:33;;;;;;;;;;;;;;;;;;;;;
2023/07/06 09:49:59;;;;;;;11.85;9.18;;;;;;;;;;4939373;29;20048;-92
2023/07/06 09:52:45;;;;;;;15.13;9.32;;;;;;;;;;4941536;28;20539;-89
2023/07/06 09:55:38;;;;;;;11.98;9.27;;;;;;;;;;4945120;28;20490;-90
2023/07/06 09:58:29;;;;;;;13.45;10.00;;;;;;;;;;4971868;28;20038;-87
2023/07/06 10:01:40;;;;;;;15.38;11.15;;;;;;;;;;4959473;28;20062;-87
2023/07/06 10:05:04;;;;;;;11.85;10.63;;;;;;;;;;4958935;28;20050;-89
2023/07/06 10:08:23;;;;;;;13.48;11.63;;;;;;;;;;4958641;28;20470;-89
2023/07/06 10:11:26;;;;;;;15.77;12.10;;;;;;;;;;4951018;28;20042;-90
2023/07/06 10:14:37;;;;;;;16.00;11.10;;;;;;;;;;4951371;28;20043;-91
2023/07/06 10:17:38;;;;;;;11.95;9.98;;;;;;;;;;4944220;28;20047;-89
2023/07/06 10:20:59;;;;;;;20.75;13.85;;;;;;;;;;4951823;28;20410;-90
2023/07/06 10:32:51;;;;;;;14.25;11.52;;;;;;;;;;4936157;28;20481;-85
2023/07/06 10:35:50;;;;;;;14.80;11.98;;;;;;;;;;4971881;28;20043;-85
2023/07/06 10:39:16;;;;;;;14.32;12.75;;;;;;;;;;4944479;28;20034;-90
2023/07/06 10:42:29;;;;;;;15.68;13.40;;;;;;;;;;4964189;28;20395;-89
2023/07/06 10:45:32;;;;;;;17.48;14.27;;;;;;;;;;4947653;28;20051;-87
2023/07/06 10:49:15;;;;;;;17.88;14.10;;;;;;;;;;4953874;28;20043;-87
2023/07/06 10:52:01;;;;;;;15.40;12.35;;;;;;;;;;4962726;28;21318;-85
2023/07/06 10:55:01;;;;;;;15.07;12.07;;;;;;;;;;4971843;28;20042;-86
2023/07/06 10:57:57;;;;;;;14.35;12.85;;;;;;;;;;4992286;28;20046;-87
2023/07/06 11:01:29;;;;;;;19.00;12.85;;;;;;;;;;4981252;28;20046;-85
2023/07/06 11:04:43;;;;;;;13.18;9.13;;;;;;;;;;4998934;28;20437;-86
2023/07/06 11:07:46;;;;;;;9.40;8.43;;;;;;;;;;4969827;28;20047;-86
2023/07/06 11:10:43;;;;;;;11.05;9.32;;;;;;;;;;4990511;28;20284;-85
2023/07/06 11:13:28;;;;;;;15.18;9.80;;;;;;;;;;4993098;28;20038;-87
2023/07/06 11:16:26;;;;;;;10.93;9.60;;;;;;;;;;4992316;28;20039;-87
2023/07/06 11:19:21;;;;;;;11.43;10.10;;;;;;;;;;4959043;28;20042;-86
2023/07/06 11:22:11;;;;;;;11.80;9.77;;;;;;;;;;4969420;28;20420;-87
2023/07/06 11:25:04;;;;;;;13.32;10.90;;;;;;;;;;4990823;28;20034;-88
2023/07/06 11:27:59;;;;;;;13.68;10.85;;;;;;;;;;4990524;28;20497;-85
2023/07/06 11:30:54;;;;;;;12.88;10.05;;;;;;;;;;4982172;28;20050;-85
2023/07/06 11:34:09;;;;;;;13.07;9.95;;;;;;;;;;4978522;28;20058;-88
2023/07/06 11:37:09;;;;;;;10.75;9.25;;;;;;;;;;4986513;28;20050;-88
2023/07/06 11:39:57;;;;;;;9.65;8.75;;;;;;;;;;4985587;28;20420;-85
2023/07/06 11:43:12;;;;;;;11.40;7.93;;;;;;;;;;4989312;28;20116;-86
2023/07/06 11:46:31;;;;;;;8.73;7.82;;;;;;;;;;4993609;28;20046;-86
2023/07/06 11:49:20;;;;;;;8.80;8.00;;;;;;;;;;4973366;28;20038;-88
2023/07/06 11:52:44;;;;;;;10.30;8.77;;;;;;;;;;4994225;28;20389;-85
2023/07/06 11:56:19;;;;;;;10.38;9.38;;;;;;;;;;4969913;28;20046;-88
2023/07/06 11:59:51;;;;;;;12.40;10.25;;;;;;;;;;4988009;28;20042;-85
2023/07/06 12:03:14;;;;;;;11.70;9.90;;;;;;;;;;4977562;28;20401;-90
2023/07/06 12:06:23;;;;;;;11.75;10.52;;;;;;;;;;4983964;28;20403;-88
2023/07/06 12:09:35;;;;;;;12.15;10.15;;;;;;;;;;4982219;28;20042;-87
2023/07/06 12:16:45;;;;;;;9.73;8.82;;;;;;;;;;4981999;28;20046;-87
2023/07/06 12:19:30;;;;;;;13.35;10.25;;;;;;;;;;4978285;28;20046;-87
2023/07/06 12:22:19;;;;;;;13.88;12.00;;;;;;;;;;4967578;28;20413;-86
2023/07/06 12:25:08;;;;;;;12.32;10.95;;;;;;;;;;4971352;28;20047;-86
2023/07/06 12:28:01;;;;;;;12.02;10.68;;;;;;;;;;4993192;28;20486;-86
2023/07/06 12:30:52;;;;;;;13.45;11.65;;;;;;;;;;4984213;28;20481;-86
2023/07/06 12:33:38;;;;;;;11.82;10.57;;;;;;;;;;4978251;28;20505;-86
2023/07/06 12:36:28;;;;;;;13.35;9.60;;;;;;;;;;4992842;28;20486;-87
2023/07/06 12:39:18;;;;;;;12.05;10.50;;;;;;;;;;4970578;28;20050;-87
2023/07/06 12:42:05;;;;;;;10.85;9.27;;;;;;;;;;4971490;28;20066;-86
2023/07/06 12:45:00;;;;;;;13.25;9.50;;;;;;;;;;4984609;28;20405;-87
2023/07/06 12:47:45;;;;;;;9.65;8.73;;;;;;;;;;4978021;28;20049;-83
2023/07/06 12:50:41;;;;;;;13.35;9.85;;;;;;;;;;4984366;28;20038;-85
2023/07/06 12:53:33;;;;;;;10.57;9.48;;;;;;;;;;4982960;28;20038;-87
2023/07/06 12:56:21;;;;;;;11.10;8.57;;;;;;;;;;4992188;28;20046;-85
2023/07/06 12:59:20;;;;;;;10.20;9.10;;;;;;;;;;4977485;28;20038;-84
2023/07/06 13:02:20;;;;;;;10.20;9.18;;;;;;;;;;4992427;28;20653;-85
2023/07/06 13:05:35;;;;;;;12.52;9.48;;;;;;;;;;4992191;28;20046;-87
2023/07/06 13:08:23;;;;;;;11.02;9.13;;;;;;;;;;4985422;28;20050;-86
2023/07/06 13:11:09;;;;;;;10.52;8.48;;;;;;;;;;4983782;28;20622;-87
2023/07/06 13:14:02;;;;;;;9.75;8.75;;;;;;;;;;4991937;28;20050;-86
2023/07/06 13:16:56;;;;;;;13.20;8.32;;;;;;;;;;4992230;28;20051;-85
2023/07/06 13:19:47;;;;;;;9.77;8.40;;;;;;;;;;4984303;28;20042;-83
2023/07/06 13:22:34;;;;;;;10.02;8.27;;;;;;;;;;4992530;28;20050;-86
2023/07/06 13:25:22;;;;;;;11.15;7.10;;;;;;;;;;4992514;28;20050;-86
2023/07/06 13:28:11;;;;;;;7.90;7.10;;;;;;;;;;4992868;28;20042;-88
2023/07/06 13:30:58;;;;;;;10.65;7.32;;;;;;;;;;4977222;28;20030;-86
2023/07/06 13:33:43;;;;;;;9.55;7.82;;;;;;;;;;4977686;28;20486;-87
2023/07/06 13:36:29;;;;;;;10.57;8.32;;;;;;;;;;4989229;28;20058;-88
2023/07/06 13:39:15;;;;;;;10.60;8.68;;;;;;;;;;4975109;28;20050;-88
2023/07/06 13:42:00;;;;;;;7.95;7.15;;;;;;;;;;4976864;28;20482;-87
2023/07/06 13:44:48;;;;;;;10.75;7.35;;;;;;;;;;4976086;28;20038;-87
2023/07/06 13:47:33;;;;;;;10.32;7.22;;;;;;;;;;4983767;28;20046;-87
2023/07/06 13:50:20;;;;;;;9.57;7.85;;;;;;;;;;4991881;28;20042;-87
2023/07/06 13:53:07;;;;;;;9.25;7.10;;;;;;;;;;4976434;28;20050;-86
2023/07/06 13:55:54;;;;;;;8.90;8.00;;;;;;;;;;4991011;28;20041;-88
2023/07/06 13:58:41;;;;;;;11.38;7.90;;;;;;;;;;4991464;28;20046;-85
2023/07/06 14:01:27;;;;;;;9.35;6.93;;;;;;;;;;4988644;28;20050;-85
2023/07/06 14:04:23;;;;;;;11.60;7.75;;;;;;;;;;4992624;28;20042;-86
2023/07/06 14:07:10;;;;;;;10.80;7.18;;;;;;;;;;4971430;28;20046;-86
2023/07/06 14:09:55;;;;;;;9.48;7.07;;;;;;;;;;4976561;28;20050;-89
2023/07/06 14:12:41;;;;;;;7.13;6.43;;;;;;;;;;4968801;28;20050;-87
2023/07/06 14:15:27;;;;;;;7.95;6.97;;;;;;;;;;4967812;28;20054;-88
2023/07/06 14:18:13;;;;;;;7.90;7.05;;;;;;;;;;4981845;28;20405;-87
2023/07/06 14:21:01;;;;;;;10.52;7.00;;;;;;;;;;4968052;28;20474;-85
2023/07/06 14:23:46;;;;;;;9.70;7.32;;;;;;;;;;4990165;28;20042;-86
2023/07/06 14:26:32;;;;;;;17.65;8.18;;;;;;;;;;4982911;28;20046;-87
2023/07/06 14:29:17;;;;;;;8.63;7.35;;;;;;;;;;4991194;28;20051;-86
2023/07/06 14:32:05;;;;;;;9.10;6.95;;;;;;;;;;4968763;28;20046;-87
2023/07/06 14:34:54;;;;;;;10.88;7.72;;;;;;;;;;4971115;28;20058;-86
2023/07/06 14:37:40;;;;;;;9.70;7.78;;;;;;;;;;4969990;28;20046;-87
2023/07/06 14:40:25;;;;;;;11.43;9.50;;;;;;;;;;4983285;28;20049;-87
2023/07/06 14:43:11;;;;;;;13.05;9.27;;;;;;;;;;4983202;28;20474;-86
2023/07/06 14:45:57;;;;;;;10.73;8.80;;;;;;;;;;4993059;28;20054;-86
2023/07/06 14:48:42;;;;;;;11.00;8.50;;;;;;;;;;4989890;28;20051;-86
2023/07/06 14:51:28;;;;;;;11.73;8.52;;;;;;;;;;4990304;28;20493;-86
2023/07/06 14:54:13;;;;;;;13.60;9.07;;;;;;;;;;4991873;28;20039;-85
2023/07/06 14:56:59;;;;;;;9.65;8.00;;;;;;;;;;4976572;28;20046;-85
2023/07/06 14:59:44;;;;;;;10.82;8.35;;;;;;;;;;4979124;28;20066;-87
2023/07/06 15:02:31;;;;;;;12.40;8.80;;;;;;;;;;4996428;28;20470;-87
2023/07/06 15:05:16;;;;;;;15.02;9.98;;;;;;;;;;4976895;28;20046;-87
2023/07/06 15:08:02;;;;;;;14.23;9.02;;;;;;;;;;4992994;28;20038;-86
2023/07/06 15:10:48;;;;;;;10.80;8.63;;;;;;;;;;4986021;28;20046;-84
2023/07/06 15:13:36;;;;;;;11.55;8.10;;;;;;;;;;4986180;28;20046;-87
2023/07/06 15:16:22;;;;;;;10.60;8.80;;;;;;;;;;4985610;28;20405;-86
2023/07/06 15:19:08;;;;;;;10.60;8.02;;;;;;;;;;4996614;28;20046;-87
2023/07/06 15:21:53;;;;;;;10.05;8.00;;;;;;;;;;4996705;28;20042;-87
2023/07/06 15:24:39;;;;;;;8.40;7.22;;;;;;;;;;4994428;28;20046;-84
2023/07/06 15:27:24;;;;;;;12.23;8.25;;;;;;;;;;4996823;28;20050;-87
2023/07/06 15:30:11;;;;;;;9.98;7.85;;;;;;;;;;4998246;28;20051;-87
2023/07/06 15:32:56;;;;;;;10.85;8.80;;;;;;;;;;4990767;28;20046;-87
2023/07/06 15:35:42;;;;;;;10.50;9.18;;;;;;;;;;4990832;28;20046;-88
2023/07/06 15:38:28;;;;;;;11.38;8.95;;;;;;;;;;4990806;28;20047;-86
2023/07/06 15:41:14;;;;;;;10.68;8.48;;;;;;;;;;4971654;28;20378;-88
2023/07/06 15:44:01;;;;;;;13.68;8.68;;;;;;;;;;4986176;28;20042;-87
2023/07/06 15:46:47;;;;;;;18.92;11.18;;;;;;;;;;4980118;28;20034;-85
2023/07/06 15:49:33;;;;;;;14.48;10.65;;;;;;;;;;4994976;28;20042;-85
2023/07/06 15:52:18;;;;;;;16.23;11.30;;;;;;;;;;4985976;28;20038;-86
2023/07/06 15:55:04;;;;;;;20.15;11.05;;;;;;;;;;4985989;28;20046;-87
2023/07/06 15:57:50;;;;;;;14.75;11.60;;;;;;;;;;4974713;28;20047;-86
2023/07/06 16:00:35;;;;;;;15.20;12.73;;;;;;;;;;4961778;28;20031;-87
2023/07/06 16:03:24;;;;;;;14.73;13.20;;;;;;;;;;4966961;28;20035;-87
2023/07/06 16:06:09;;;;;;;14.82;12.85;;;;;;;;;;4958919;28;21821;-88
2023/07/06 16:08:55;;;;;;;14.18;12.35;;;;;;;;;;4965691;28;20040;-85
2023/07/06 16:11:40;;;;;;;19.55;13.07;;;;;;;;;;4958363;28;20054;-88
2023/07/06 16:14:25;;;;;;;16.40;13.02;;;;;;;;;;4966526;28;20042;-87
2023/07/06 16:17:11;;;;;;;20.92;13.55;;;;;;;;;;4955189;28;20055;-87
2023/07/06 16:19:55;;;;;;;15.95;12.70;;;;;;;;;;4956026;28;20042;-84
2023/07/06 16:22:41;;;;;;;17.77;11.77;;;;;;;;;;4970256;28;20402;-86
2023/07/06 16:25:28;;;;;;;12.75;10.52;;;;;;;;;;4974657;28;20050;-85
2023/07/06 16:28:13;;;;;;;13.48;11.05;;;;;;;;;;4953852;28;20482;-86
2023/07/06 16:30:59;;;;;;;13.93;10.90;;;;;;;;;;4953882;28;20046;-86
2023/07/06 16:33:44;;;;;;;14.35;11.63;;;;;;;;;;4955517;28;20042;-85
2023/07/06 16:36:31;;;;;;;14.20;12.18;;;;;;;;;;4965781;28;20047;-85
2023/07/06 16:39:16;;;;;;;17.67;12.80;;;;;;;;;;4959057;28;20051;-84
2023/07/06 16:42:02;;;;;;;14.50;13.00;;;;;;;;;;4965019;28;20050;-87
2023/07/06 16:44:48;;;;;;;16.58;13.40;;;;;;;;;;4965155;28;20055;-86
2023/07/06 16:47:33;;;;;;;22.83;15.90;;;;;;;;;;4958849;28;20483;-84
2023/07/06 16:50:19;;;;;;;20.80;16.67;;;;;;;;;;4966220;28;20043;-84
2023/07/06 16:53:04;;;;;;;22.48;16.17;;;;;;;;;;4961770;28;20043;-84
2023/07/06 16:55:51;;;;;;;22.13;17.85;;;;;;;;;;4968627;28;20046;-84
2023/07/06 16:58:35;;;;;;;21.63;17.73;;;;;;;;;;4977798;28;20046;-84
2023/07/06 17:01:21;;;;;;;16.05;14.05;;;;;;;;;;4977212;28;20513;-82
2023/07/06 17:04:07;;;;;;;17.95;13.15;;;;;;;;;;4976957;28;20046;-86
2023/07/06 17:06:53;;;;;;;18.80;14.68;;;;;;;;;;4983594;28;20420;-87
2023/07/06 17:09:38;;;;;;;16.58;11.88;;;;;;;;;;4995828;28;20046;-84
2023/07/06 17:12:23;;;;;;;22.85;12.95;;;;;;;;;;4985828;28;20042;-87
2023/07/06 17:15:09;;;;;;;21.38;14.32;;;;;;;;;;4992489;28;20038;-87
2023/07/06 17:17:55;;;;;;;23.25;14.70;;;;;;;;;;4985515;28;20050;-87
2023/07/06 17:21:13;;;;;;;21.30;16.05;;;;;;;;;;4992267;28;20054;-90
2023/07/06 17:24:24;;;;;;;30.17;21.00;;;;;;;;;;4981018;28;20059;-85
2023/07/06 17:27:15;;;;;;;26.52;20.13;;;;;;;;;;4999921;28;20054;-87
2023/07/06 17:30:00;;;;;;;25.73;21.67;;;;;;;;;;4984414;28;20405;-86
2023/07/06 17:32:47;;;;;;;31.10;22.92;;;;;;;;;;4970327;28;20042;-86
2023/07/06 17:35:32;;;;;;;30.27;22.77;;;;;;;;;;4983799;28;20042;-86
2023/07/06 17:38:19;;;;;;;35.25;23.65;;;;;;;;;;4983996;28;20393;-88
2023/07/06 17:41:10;;;;;;;32.17;25.23;;;;;;;;;;4991115;28;20062;-84
2023/07/06 17:43:55;;;;;;;29.73;24.90;;;;;;;;;;4994759;28;20397;-88
2023/07/06 17:46:41;;;;;;;33.05;26.13;;;;;;;;;;4985214;28;20038;-85
2023/07/06 17:49:26;;;;;;;42.00;24.73;;;;;;;;;;4982162;28;20046;-85
2023/07/06 17:52:12;;;;;;;27.05;22.70;;;;;;;;;;4991477;28;20042;-85
2023/07/06 17:54:57;;;;;;;32.92;26.05;;;;;;;;;;4992234;28;20046;-85
2023/07/06 17:57:43;;;;;;;34.72;24.60;;;;;;;;;;4951709;28;20047;-84
2023/07/06 18:00:29;;;;;;;37.95;25.70;;;;;;;;;;4972614;28;20039;-85
2023/07/06 18:03:14;;;;;;;30.40;24.52;;;;;;;;;;4963168;28;20055;-87
2023/07/06 18:06:10;;;;;;;29.95;24.95;;;;;;;;;;4972717;28;20047;-88
2023/07/06 18:08:56;;;;;;;34.03;26.95;;;;;;;;;;4963400;28;20656;-86
2023/07/06 18:11:41;;;;;;;92.60;50.85;;;;;;;;;;4960643;28;20043;-84
2023/07/06 18:14:26;;;;;;;28.42;24.15;;;;;;;;;;4970459;28;20046;-82
2023/07/06 18:17:12;;;;;;;29.45;25.10;;;;;;;;;;4971484;28;20478;-84
2023/07/06 18:19:58;;;;;;;32.88;26.35;;;;;;;;;;4971483;28;20042;-85
2023/07/06 18:22:45;;;;;;;40.53;29.17;;;;;;;;;;4971476;28;20050;-84
2023/07/06 18:25:30;;;;;;;42.42;29.73;;;;;;;;;;4970789;28;20777;-85
2023/07/06 18:28:16;;;;;;;35.08;28.27;;;;;;;;;;4970995;28;20039;-85
2023/07/06 18:31:01;;;;;;;35.22;26.08;;;;;;;;;;4956678;28;20043;-85
2023/07/06 18:33:46;;;;;;;33.40;26.00;;;;;;;;;;4971009;28;20043;-86
2023/07/06 18:36:32;;;;;;;33.45;25.77;;;;;;;;;;4962298;28;20039;-84
2023/07/06 18:39:18;;;;;;;33.58;27.05;;;;;;;;;;4962207;28;20046;-85
2023/07/06 18:42:03;;;;;;;34.22;27.55;;;;;;;;;;4962987;28;20055;-87
2023/07/06 18:45:03;;;;;;;34.45;28.42;;;;;;;;;;4975340;28;20398;-85
2023/07/06 18:47:48;;;;;;;38.05;30.00;;;;;;;;;;4975123;28;20047;-85
2023/07/06 18:50:36;;;;;;;38.35;28.40;;;;;;;;;;4975284;28;20039;-83
2023/07/06 18:53:21;;;;;;;34.85;27.27;;;;;;;;;;4974818;28;20046;-85
2023/07/06 18:56:07;;;;;;;30.13;26.52;;;;;;;;;;4967987;28;20054;-82
2023/07/06 18:58:55;;;;;;;32.85;25.90;;;;;;;;;;4984144;28;20043;-87
2023/07/06 19:02:25;;;;;;;29.92;25.40;;;;;;;;;;4972898;28;20042;-85
2023/07/06 19:05:43;;;;;;;35.33;27.65;;;;;;;;;;4977267;28;20042;-88
2023/07/06 19:08:39;;;;;;;41.67;30.00;;;;;;;;;;4982676;28;20038;-87
2023/07/06 19:11:27;;;;;;;41.10;28.60;;;;;;;;;;4961553;28;20034;-85
2023/07/06 19:14:25;;;;;;;36.05;28.88;;;;;;;;;;4983686;28;20410;-88
2023/07/06 19:17:29;;;;;;;48.65;29.17;;;;;;;;;;4959229;28;20034;-86
2023/07/06 19:20:26;;;;;;;;;;;;;;;;;;4977601;28;20506;-87
2023/07/06 19:23:51;;;;;;;;;;;;;;;;;;;;;
2023/07/06 19:26:45;;;;;;;34.35;28.92;;;;;;;;;;4978680;28;21157;-85
2023/07/06 19:29:36;;;;;;;34.25;28.17;;;;;;;;;;4989591;28;20050;-86
2023/07/06 19:32:22;;;;;;;37.55;28.10;;;;;;;;;;4978420;28;20039;-84
2023/07/06 19:35:08;;;;;;;33.80;25.40;;;;;;;;;;4963631;28;20043;-84
2023/07/06 19:37:54;;;;;;;34.55;26.30;;;;;;;;;;4978663;28;20030;-83
2023/07/06 19:40:39;;;;;;;34.80;25.75;;;;;;;;;;4970447;28;20042;-88
2023/07/06 19:43:24;;;;;;;32.83;24.25;;;;;;;;;;4964035;28;20050;-84
2023/07/06 19:46:10;;;;;;;31.80;23.85;;;;;;;;;;4968073;28;20070;-86
2023/07/06 19:48:55;;;;;;;28.23;22.80;;;;;;;;;;4975653;28;20039;-84
2023/07/06 19:51:43;;;;;;;29.88;23.92;;;;;;;;;;4947354;28;20039;-86
2023/07/06 19:54:32;;;;;;;29.58;23.40;;;;;;;;;;4964956;28;20043;-85
2023/07/06 19:57:19;;;;;;;29.60;24.15;;;;;;;;;;4976019;28;20050;-86
2023/07/06 20:00:05;;;;;;;31.73;24.48;;;;;;;;;;4985742;28;20489;-88
2023/07/06 20:02:58;;;;;;;31.15;24.65;;;;;;;;;;4979069;28;20489;-87
2023/07/06 20:05:44;;;;;;;30.05;24.23;;;;;;;;;;4978483;28;20050;-85
2023/07/06 20:08:29;;;;;;;31.25;25.55;;;;;;;;;;4972730;28;20051;-84
2023/07/06 20:11:14;;;;;;;29.23;25.15;;;;;;;;;;4978710;28;20042;-88
2023/07/06 20:14:36;;;;;;;31.20;25.88;;;;;;;;;;4971760;28;20034;-88
2023/07/06 20:17:28;;;;;;;33.28;26.55;;;;;;;;;;4992247;28;20050;-86
2023/07/06 20:20:13;;;;;;;35.75;27.45;;;;;;;;;;4992846;28;20047;-88
2023/07/06 20:23:04;;;;;;;36.42;27.83;;;;;;;;;;4993154;28;21476;-83
2023/07/06 20:25:52;;;;;;;32.20;25.00;;;;;;;;;;4978141;28;20042;-86
2023/07/06 20:28:48;;;;;;;33.80;25.08;;;;;;;;;;4993174;28;20054;-86
2023/07/06 20:31:40;;;;;;;26.67;23.77;;;;;;;;;;4978296;28;20034;-86
2023/07/06 20:34:51;;;;;;;29.00;24.48;;;;;;;;;;4993110;28;20046;-85
2023/07/06 20:38:01;;;;;;;;;;;;;;;;;;;;;
2023/07/06 20:41:08;;;;;;;30.20;23.55;;;;;;;;;;4983924;28;20038;-87
2023/07/06 20:45:01;;;;;;;28.20;22.73;;;;;;;;;;4989781;28;20047;-84
2023/07/06 20:52:36;;;;;;;28.20;22.65;;;;;;;;;;4974621;28;20039;-84
2023/07/06 20:55:35;;;;;;;27.58;23.45;;;;;;;;;;4967453;28;20047;-85
2023/07/06 20:58:26;;;;;;;30.92;24.75;;;;;;;;;;4961529;28;20051;-83
2023/07/06 21:01:11;;;;;;;29.13;25.15;;;;;;;;;;4961150;28;20051;-86
2023/07/06 21:04:16;;;;;;;;;;;;;;;;;;;;;
2023/07/06 21:07:05;;;;;;;36.30;26.13;;;;;;;;;;4965498;28;20074;-85
2023/07/06 21:10:47;;;;;;;36.35;24.92;;;;;;;;;;4955023;28;20050;-85
2023/07/06 21:48:50;;;;;;;25.13;18.33;;;;;;;;;;4998330;28;20050;-86
2023/07/06 21:52:15;;;;;;;19.80;16.15;;;;;;;;;;4990727;28;20481;-84
2023/07/06 22:00:10;;;;;;;19.42;14.23;;;;;;;;;;4928305;29;20412;-84
2023/07/06 22:07:47;;;;;;;20.52;12.65;;;;;;;;;;4837374;29;20041;-84
2023/07/06 22:11:03;;;;;;;22.48;13.07;;;;;;;;;;4858987;29;20041;-85
2023/07/06 22:14:45;;;;;;;16.30;12.25;;;;;;;;;;4882145;29;20057;-85
2023/07/06 22:17:58;;;;;;;17.52;12.30;;;;;;;;;;4914850;29;20519;-85
2023/07/06 22:21:48;;;;;;;;;;;;;;;;;;;;;
2023/07/06 22:59:25;;;;;;;17.60;12.73;;;;;;;;;;5023858;23;20530;-87
2023/07/06 23:02:16;;;;;;;18.20;12.40;;;;;;;;;;5018020;28;20038;-87
2023/07/06 23:05:15;;;;;;;15.30;11.10;;;;;;;;;;5012989;28;20049;-87
2023/07/06 23:08:23;;;;;;;14.85;11.45;;;;;;;;;;5010014;28;20046;-89
2023/07/06 23:11:09;;;;;;;17.73;11.70;;;;;;;;;;5001323;28;20050;-89
2023/07/06 23:13:55;;;;;;;18.52;12.60;;;;;;;;;;4992064;28;20496;-88
2023/07/06 23:16:41;;;;;;;19.05;12.77;;;;;;;;;;5001916;28;20046;-88
2023/07/06 23:19:28;;;;;;;15.82;12.35;;;;;;;;;;4993454;28;20050;-88
2023/07/06 23:22:19;;;;;;;17.27;13.32;;;;;;;;;;5008095;28;20439;-87
2023/07/06 23:25:49;;;;;;;20.17;13.60;;;;;;;;;;5029903;28;20046;-87
